createdAt,value
2023-03-06T00:02:26.825Z,41.70
2023-03-06T00:04:54.295Z,45.77
2023-03-06T00:07:21.821Z,42.73
2023-03-06T00:09:49.640Z,38.93
2023-03-06T00:12:17.169Z,40.60
2023-03-06T00:14:46.014Z,39.83
2023-03-06T00:17:13.540Z,35.07
2023-03-06T00:19:41.054Z,36.00
2023-03-06T00:22:08.571Z,42.50
2023-03-06T00:24:36.101Z,40.27
2023-03-06T00:27:03.595Z,42.10
2023-03-06T00:29:31.140Z,40.80
2023-03-06T00:32:00.002Z,41.40
2023-03-06T00:34:27.543Z,40.43
2023-03-06T00:36:55.139Z,46.30
2023-03-06T00:39:23.508Z,38.23
2023-03-06T00:41:51.023Z,40.17
2023-03-06T00:44:18.533Z,37.67
2023-03-06T00:46:46.065Z,39.57
2023-03-06T00:49:15.032Z,39.57
2023-03-06T00:51:42.520Z,37.83
2023-03-06T00:54:10.041Z,35.93
2023-03-06T00:56:37.548Z,36.60
2023-03-06T00:59:05.072Z,38.93
2023-03-06T01:01:32.611Z,43.13
2023-03-06T01:04:00.122Z,33.90
2023-03-06T01:06:29.109Z,37.30
2023-03-06T01:08:56.616Z,40.47
2023-03-06T01:11:24.114Z,48.83
2023-03-06T01:13:51.596Z,40.27
2023-03-06T01:16:20.109Z,39.33
2023-03-06T01:18:47.768Z,38.80
2023-03-06T01:21:15.388Z,49.83
2023-03-06T01:23:44.326Z,38.87
2023-03-06T01:26:11.809Z,40.60
2023-03-06T01:28:39.304Z,43.53
2023-03-06T01:31:07.449Z,50.23
2023-03-06T01:33:35.490Z,36.67
2023-03-06T01:36:04.788Z,44.23
2023-03-06T01:38:32.420Z,46.13
2023-03-06T01:41:01.353Z,42.93
2023-03-06T01:43:30.006Z,39.27
2023-03-06T01:46:16.077Z,46.63
2023-03-06T01:48:43.915Z,41.07
2023-03-06T01:51:11.668Z,37.53
2023-03-06T01:53:40.084Z,42.27
2023-03-06T01:56:09.212Z,42.27
2023-03-06T01:58:36.918Z,37.63
2023-03-06T02:01:04.488Z,40.67
2023-03-06T02:03:33.069Z,44.70
2023-03-06T02:06:00.740Z,38.93
2023-03-06T02:08:28.733Z,37.77
2023-03-06T02:10:59.142Z,44.50
2023-03-06T02:13:28.062Z,46.33
2023-03-06T02:15:55.623Z,37.30
2023-03-06T02:18:23.165Z,38.80
2023-03-06T02:20:52.222Z,40.60
2023-03-06T02:23:22.308Z,39.47
2023-03-06T02:25:52.347Z,41.53
2023-03-06T02:28:21.859Z,35.07
2023-03-06T02:30:50.536Z,48.90
2023-03-06T02:33:19.231Z,42.10
2023-03-06T02:35:48.290Z,36.47
2023-03-06T02:38:17.036Z,35.97
2023-03-06T02:40:45.563Z,37.53
2023-03-06T02:43:16.267Z,35.60
2023-03-06T02:45:45.513Z,41.13
2023-03-06T02:48:13.091Z,42.57
2023-03-06T02:50:40.996Z,39.90
2023-03-06T02:53:09.750Z,40.17
2023-03-06T02:55:37.432Z,36.07
2023-03-06T02:58:05.344Z,36.80
2023-03-06T03:00:34.532Z,32.37
2023-03-06T03:03:02.299Z,41.27
2023-03-06T03:05:29.758Z,33.07
2023-03-06T03:07:57.279Z,38.47
2023-03-06T03:10:24.877Z,36.40
2023-03-06T03:12:52.661Z,36.07
2023-03-06T03:15:20.360Z,37.30
2023-03-06T03:17:49.152Z,34.57
2023-03-06T03:20:18.193Z,38.50
2023-03-06T03:22:48.238Z,42.10
2023-03-06T03:25:15.807Z,41.53
2023-03-06T03:27:43.322Z,42.43
2023-03-06T03:30:11.450Z,44.20
2023-03-06T03:32:38.956Z,42.53
2023-03-06T03:35:09.885Z,39.47
2023-03-06T03:37:37.860Z,46.73
2023-03-06T03:40:06.648Z,43.20
2023-03-06T03:42:34.368Z,38.57
2023-03-06T03:45:01.837Z,37.83
2023-03-06T03:47:29.342Z,40.47
2023-03-06T03:49:56.929Z,42.20
2023-03-06T03:52:25.832Z,42.37
2023-03-06T03:54:53.572Z,39.20
2023-03-06T03:57:21.049Z,41.80
2023-03-06T03:59:48.542Z,38.97
2023-03-06T04:02:17.066Z,41.17
2023-03-06T04:04:44.656Z,43.40
2023-03-06T04:07:13.334Z,42.80
2023-03-06T04:09:42.195Z,42.97
2023-03-06T04:12:09.926Z,38.33
2023-03-06T04:14:37.416Z,35.60
2023-03-06T04:17:04.874Z,38.37
2023-03-06T04:19:32.368Z,39.33
2023-03-06T04:21:59.811Z,39.60
2023-03-06T04:24:27.297Z,37.37
2023-03-06T04:26:56.123Z,37.73
2023-03-06T04:29:23.827Z,43.63
2023-03-06T04:31:51.448Z,40.17
2023-03-06T04:34:19.020Z,35.97
2023-03-06T04:36:46.502Z,38.30
2023-03-06T04:39:14.557Z,42.03
2023-03-06T04:41:42.456Z,34.00
2023-03-06T04:44:11.567Z,36.20
2023-03-06T04:46:39.068Z,40.83
2023-03-06T04:49:06.557Z,36.80
2023-03-06T04:51:36.694Z,41.33
2023-03-06T04:54:08.649Z,43.90
2023-03-06T04:56:36.108Z,41.77
2023-03-06T04:59:04.286Z,39.27
2023-03-06T05:01:33.223Z,41.73
2023-03-06T05:04:00.716Z,38.10
2023-03-06T05:06:28.287Z,36.93
2023-03-06T05:08:55.725Z,46.37
2023-03-06T05:11:23.190Z,39.97
2023-03-06T05:13:50.651Z,37.50
2023-03-06T05:16:18.225Z,39.47
2023-03-06T05:18:48.907Z,37.70
2023-03-06T05:21:17.913Z,37.40
2023-03-06T05:23:45.450Z,46.43
2023-03-06T05:26:13.942Z,43.00
2023-03-06T05:28:41.848Z,37.73
2023-03-06T05:31:09.356Z,39.77
2023-03-06T05:33:37.249Z,42.97
2023-03-06T05:36:08.320Z,39.63
2023-03-06T05:38:35.814Z,44.00
2023-03-06T05:41:03.283Z,36.53
2023-03-06T05:43:30.744Z,43.27
2023-03-06T05:46:01.518Z,49.60
2023-03-06T05:48:29.049Z,40.50
2023-03-06T05:50:56.978Z,37.63
2023-03-06T05:53:26.774Z,42.33
2023-03-06T05:55:57.705Z,36.27
2023-03-06T05:58:25.259Z,36.97
2023-03-06T06:00:53.325Z,39.70
2023-03-06T06:03:21.140Z,42.60
2023-03-06T06:05:48.673Z,40.23
2023-03-06T06:08:16.457Z,38.03
2023-03-06T06:10:45.416Z,43.87
2023-03-06T06:13:12.905Z,46.17
2023-03-06T06:15:40.404Z,41.53
2023-03-06T06:18:07.938Z,42.93
2023-03-06T06:20:35.507Z,42.70
2023-03-06T06:23:03.003Z,40.00
2023-03-06T06:25:30.444Z,45.47
2023-03-06T06:27:59.233Z,45.27
2023-03-06T06:30:26.672Z,49.53
2023-03-06T06:32:54.086Z,44.27
2023-03-06T06:35:21.701Z,40.80
2023-03-06T06:37:49.276Z,48.33
2023-03-06T06:40:17.077Z,48.27
2023-03-06T06:42:46.477Z,45.77
2023-03-06T06:45:15.277Z,48.67
2023-03-06T06:47:43.374Z,46.90
2023-03-06T06:50:13.146Z,45.30
2023-03-06T06:52:40.675Z,51.57
2023-03-06T06:55:08.805Z,48.17
2023-03-06T06:57:36.291Z,46.37
2023-03-06T07:00:04.660Z,48.73
2023-03-06T07:02:33.521Z,40.47
2023-03-06T07:05:04.511Z,37.30
2023-03-06T07:07:32.662Z,49.47
2023-03-06T07:10:00.179Z,46.03
2023-03-06T07:12:27.661Z,36.30
2023-03-06T07:14:55.184Z,41.40
2023-03-06T07:17:22.719Z,36.47
2023-03-06T07:19:51.839Z,36.67
2023-03-06T07:22:19.266Z,39.90
2023-03-06T07:24:46.824Z,55.00
2023-03-06T07:27:14.268Z,44.27
2023-03-06T07:29:43.435Z,39.00
2023-03-06T07:32:11.127Z,40.70
2023-03-06T07:34:38.783Z,38.03
2023-03-06T07:37:07.622Z,40.70
2023-03-06T07:39:35.211Z,40.33
2023-03-06T07:42:02.707Z,37.37
2023-03-06T07:44:30.256Z,38.73
2023-03-06T07:46:57.819Z,34.23
2023-03-06T07:49:25.317Z,43.10
2023-03-06T07:51:52.776Z,47.93
2023-03-06T07:54:21.564Z,38.37
2023-03-06T07:56:50.883Z,45.07
2023-03-06T07:59:18.440Z,46.27
2023-03-06T08:01:46.027Z,42.13
2023-03-06T08:04:13.591Z,44.50
2023-03-06T08:06:41.111Z,40.13
2023-03-06T08:09:10.997Z,36.50
2023-03-06T08:11:39.856Z,41.27
2023-03-06T08:14:07.408Z,39.30
2023-03-06T08:16:35.137Z,47.13
2023-03-06T08:19:02.610Z,38.60
2023-03-06T08:21:30.164Z,36.53
2023-03-06T08:23:57.647Z,38.33
2023-03-06T08:26:26.092Z,42.63
2023-03-06T08:28:56.136Z,47.70
2023-03-06T08:31:26.273Z,39.87
2023-03-06T08:33:53.801Z,35.67
2023-03-06T08:36:21.660Z,34.42
2023-03-06T08:38:49.205Z,37.47
2023-03-06T08:41:17.171Z,37.47
2023-03-06T08:43:44.651Z,30.17
2023-03-06T08:46:13.836Z,27.73
2023-03-06T08:48:41.570Z,26.90
2023-03-06T08:51:09.771Z,31.65
2023-03-06T08:53:43.026Z,25.07
2023-03-06T08:56:16.235Z,29.15
2023-03-06T08:58:43.741Z,27.08
2023-03-06T09:01:15.233Z,24.35
2023-03-06T09:03:42.746Z,21.90
2023-03-06T09:06:10.238Z,20.85
2023-03-06T09:08:38.521Z,18.42
2023-03-06T09:11:06.032Z,16.98
2023-03-06T09:13:33.558Z,15.40
2023-03-06T09:16:01.026Z,10.20
2023-03-06T09:18:30.181Z,14.95
2023-03-06T09:20:57.670Z,13.35
2023-03-06T09:23:25.194Z,17.05
2023-03-06T09:25:53.163Z,14.23
2023-03-06T09:28:20.667Z,15.85
2023-03-06T09:30:48.219Z,10.98
2023-03-06T09:33:16.424Z,13.95
2023-03-06T09:35:49.019Z,13.80
2023-03-06T09:38:16.636Z,17.75
2023-03-06T09:40:50.951Z,11.15
2023-03-06T09:43:21.129Z,14.70
2023-03-06T09:45:48.628Z,13.07
2023-03-06T09:48:21.651Z,15.15
2023-03-06T09:50:52.519Z,15.50
2023-03-06T09:53:32.222Z,11.85
2023-03-06T09:56:02.237Z,12.18
2023-03-06T09:58:31.059Z,11.43
2023-03-06T10:01:00.766Z,10.77
2023-03-06T10:03:30.251Z,13.10
2023-03-06T10:06:02.845Z,12.90
2023-03-06T10:08:36.496Z,10.73
2023-03-06T10:11:05.279Z,10.90
2023-03-06T10:13:36.783Z,14.55
2023-03-06T10:16:21.976Z,10.37
2023-03-06T10:18:49.485Z,8.98
2023-03-06T10:21:25.338Z,12.88
2023-03-06T10:23:54.485Z,13.18
2023-03-06T10:26:24.972Z,11.10
2023-03-06T10:28:59.042Z,14.43
2023-03-06T10:31:27.749Z,13.70
2023-03-06T10:33:56.566Z,13.35
2023-03-06T10:36:27.174Z,10.07
2023-03-06T10:38:55.224Z,11.05
2023-03-06T10:41:25.090Z,12.85
2023-03-06T10:44:07.891Z,11.75
2023-03-06T10:46:36.661Z,12.10
2023-03-06T10:49:09.644Z,11.52
2023-03-06T10:51:38.559Z,12.45
2023-03-06T10:54:29.349Z,14.50
2023-03-06T10:56:56.866Z,11.88
2023-03-06T10:59:25.640Z,14.85
2023-03-06T11:01:53.936Z,10.48
2023-03-06T11:04:26.530Z,15.65
2023-03-06T11:07:11.986Z,12.63
2023-03-06T11:09:40.958Z,14.60
2023-03-06T11:12:26.475Z,12.27
2023-03-06T11:15:08.948Z,13.15
2023-03-06T11:17:38.204Z,12.57
2023-03-06T11:20:16.632Z,15.35
2023-03-06T11:22:49.035Z,11.93
2023-03-06T11:25:21.481Z,13.95
2023-03-06T11:27:53.656Z,11.85
2023-03-06T11:30:24.584Z,9.93
2023-03-06T11:32:53.983Z,11.68
2023-03-06T11:35:30.043Z,10.55
2023-03-06T11:37:59.157Z,11.65
2023-03-06T11:40:32.025Z,12.52
2023-03-06T11:43:03.733Z,9.93
2023-03-06T11:45:34.688Z,9.48
2023-03-06T11:48:04.676Z,8.60
2023-03-06T11:50:34.648Z,14.25
2023-03-06T11:53:03.019Z,13.80
2023-03-06T11:55:37.694Z,13.15
2023-03-06T11:58:12.428Z,13.52
2023-03-06T12:00:48.277Z,14.27
2023-03-06T12:03:28.708Z,13.05
2023-03-06T12:06:01.927Z,10.40
2023-03-06T12:08:38.849Z,17.02
2023-03-06T12:11:12.489Z,12.30
2023-03-06T12:13:44.890Z,11.60
2023-03-06T12:16:45.809Z,11.55
2023-03-06T12:19:25.547Z,12.55
2023-03-06T12:21:59.238Z,12.40
2023-03-06T12:24:44.876Z,11.20
2023-03-06T12:27:19.513Z,10.38
2023-03-06T12:30:00.438Z,13.23
2023-03-06T12:32:35.150Z,12.38
2023-03-06T12:35:17.313Z,11.70
2023-03-06T12:38:02.344Z,10.25
2023-03-06T12:40:43.510Z,9.45
2023-03-06T12:43:44.446Z,10.88
2023-03-06T12:46:19.349Z,13.93
2023-03-06T12:49:04.001Z,11.15
2023-03-06T12:51:32.360Z,11.70
2023-03-06T12:54:01.392Z,10.50
2023-03-06T12:56:29.357Z,11.63
2023-03-06T12:59:02.311Z,11.32
2023-03-06T13:01:47.259Z,9.43
2023-03-06T13:04:45.127Z,11.45
2023-03-06T13:07:19.245Z,11.07
2023-03-06T13:09:59.093Z,13.80
2023-03-06T13:15:35.696Z,12.10
2023-03-06T13:18:25.129Z,14.65
2023-03-06T13:20:52.864Z,14.32
2023-03-06T13:23:45.283Z,13.13
2023-03-06T13:26:32.834Z,13.70
2023-03-06T13:29:03.289Z,12.15
2023-03-06T13:31:50.776Z,14.02
2023-03-06T13:34:33.156Z,15.55
2023-03-06T13:37:15.516Z,14.35
2023-03-06T13:39:58.430Z,13.30
2023-03-06T13:42:29.485Z,15.85
2023-03-06T13:44:57.460Z,16.20
2023-03-06T13:47:34.496Z,14.10
2023-03-06T13:50:13.236Z,14.77
2023-03-06T13:52:44.906Z,16.02
2023-03-06T13:55:18.941Z,18.60
2023-03-06T13:57:59.233Z,17.75
2023-03-06T14:00:38.512Z,11.38
2023-03-06T14:03:36.125Z,12.05
2023-03-06T14:06:23.686Z,11.63
2023-03-06T14:08:51.562Z,9.73
2023-03-06T14:11:21.193Z,10.15
2023-03-06T14:13:51.415Z,9.98
2023-03-06T14:16:20.283Z,9.73
2023-03-06T14:18:49.106Z,10.90
2023-03-06T14:21:22.444Z,13.07
2023-03-06T14:24:00.329Z,12.65
2023-03-06T14:26:29.720Z,9.02
2023-03-06T14:28:59.329Z,16.50
2023-03-06T14:31:28.661Z,15.35
2023-03-06T14:33:57.180Z,10.65
2023-03-06T14:36:27.052Z,9.63
2023-03-06T14:38:55.549Z,12.20
2023-03-06T14:41:24.246Z,10.15
2023-03-06T14:43:51.827Z,13.18
2023-03-06T14:46:22.456Z,10.77
2023-03-06T14:48:50.130Z,10.27
2023-03-06T14:51:19.256Z,9.07
2023-03-06T14:53:48.519Z,11.60
2023-03-06T14:56:17.390Z,13.40
2023-03-06T14:58:49.373Z,11.00
2023-03-06T15:01:17.198Z,12.20
2023-03-06T15:03:46.934Z,9.10
2023-03-06T15:06:17.497Z,12.27
2023-03-06T15:08:46.815Z,15.23
2023-03-06T15:11:14.690Z,13.05
2023-03-06T15:13:42.444Z,15.32
2023-03-06T15:16:23.219Z,20.38
2023-03-06T15:18:57.356Z,12.55
2023-03-06T15:21:26.532Z,11.52
2023-03-06T15:23:54.585Z,13.07
2023-03-06T15:26:24.774Z,10.73
2023-03-06T15:29:03.360Z,10.80
2023-03-06T15:31:37.327Z,11.05
2023-03-06T15:34:24.336Z,18.17
2023-03-06T15:36:54.594Z,15.88
2023-03-06T15:39:32.943Z,11.27
2023-03-06T15:42:01.172Z,15.90
2023-03-06T15:44:30.217Z,10.48
2023-03-06T15:47:08.432Z,8.23
2023-03-06T15:49:39.040Z,11.57
2023-03-06T15:52:06.922Z,14.88
2023-03-06T15:54:34.535Z,10.40
2023-03-06T15:57:04.190Z,10.10
2023-03-06T15:59:33.286Z,11.13
2023-03-06T16:02:03.427Z,10.25
2023-03-06T16:04:31.042Z,11.05
2023-03-06T16:06:59.990Z,9.47
2023-03-06T16:09:27.609Z,8.68
2023-03-06T16:11:55.272Z,13.82
2023-03-06T16:14:24.746Z,15.57
2023-03-06T16:16:54.013Z,14.20
2023-03-06T16:19:26.781Z,13.90
2023-03-06T16:21:55.261Z,12.27
2023-03-06T16:24:26.036Z,12.50
2023-03-06T16:26:54.885Z,13.38
2023-03-06T16:29:23.142Z,12.65
2023-03-06T16:31:50.727Z,12.43
2023-03-06T16:34:19.627Z,14.88
2023-03-06T16:36:47.317Z,12.20
2023-03-06T16:39:15.806Z,12.27
2023-03-06T16:41:46.204Z,13.52
2023-03-06T16:44:13.983Z,11.50
2023-03-06T16:46:42.812Z,11.90
2023-03-06T16:49:14.425Z,13.63
2023-03-06T16:51:42.028Z,14.40
2023-03-06T16:54:09.616Z,16.07
2023-03-06T16:56:37.173Z,15.05
2023-03-06T16:59:06.311Z,20.83
2023-03-06T17:01:34.238Z,12.63
2023-03-06T17:04:01.869Z,15.83
2023-03-06T17:06:29.465Z,17.63
2023-03-06T17:08:57.995Z,19.27
2023-03-06T17:11:25.628Z,15.83
2023-03-06T17:13:54.699Z,16.73
2023-03-06T17:16:23.740Z,18.17
2023-03-06T17:18:51.295Z,22.03
2023-03-06T17:21:19.098Z,20.50
2023-03-06T17:23:46.734Z,19.67
2023-03-06T17:26:15.117Z,20.73
2023-03-06T17:28:43.021Z,17.98
2023-03-06T17:31:14.687Z,16.58
2023-03-06T17:33:43.696Z,23.90
2023-03-06T17:36:11.438Z,16.60
2023-03-06T17:38:39.042Z,17.60
2023-03-06T17:41:07.441Z,18.38
2023-03-06T17:43:34.999Z,17.60
2023-03-06T17:46:05.974Z,16.47
2023-03-06T17:48:33.594Z,19.63
2023-03-06T17:51:02.953Z,22.23
2023-03-06T17:53:30.549Z,22.40
2023-03-06T17:55:58.960Z,29.13
2023-03-06T17:58:50.051Z,27.47
2023-03-06T18:01:18.289Z,22.80
2023-03-06T18:03:47.038Z,24.37
2023-03-06T18:06:16.550Z,24.00
2023-03-06T18:08:44.150Z,24.80
2023-03-06T18:11:11.993Z,26.93
2023-03-06T18:13:40.150Z,26.27
2023-03-06T18:16:11.746Z,27.47
2023-03-06T18:18:41.956Z,27.23
2023-03-06T18:21:10.536Z,22.40
2023-03-06T18:23:42.320Z,29.00
2023-03-06T18:26:21.043Z,25.53
2023-03-06T18:28:49.550Z,25.67
2023-03-06T18:31:17.641Z,26.57
2023-03-06T18:33:45.194Z,27.80
2023-03-06T18:36:12.787Z,28.17
2023-03-06T18:38:42.991Z,30.03
2023-03-06T18:41:12.641Z,25.57
2023-03-06T18:43:40.504Z,30.80
2023-03-06T18:46:08.396Z,30.00
2023-03-06T18:48:36.336Z,30.10
2023-03-06T18:51:07.351Z,23.87
2023-03-06T18:53:35.145Z,25.37
2023-03-06T18:56:03.451Z,26.30
2023-03-06T19:06:15.483Z,25.10
2023-03-06T19:08:43.010Z,27.40
2023-03-06T19:11:11.299Z,23.97
2023-03-06T19:13:38.974Z,20.67
2023-03-06T19:16:07.468Z,22.73
2023-03-06T19:18:35.145Z,23.80
2023-03-06T19:21:09.412Z,20.93
2023-03-06T19:23:39.406Z,28.33
2023-03-06T19:26:08.465Z,23.67
2023-03-06T19:28:37.244Z,23.37
2023-03-06T19:31:08.922Z,22.63
2023-03-06T19:33:37.485Z,28.57
2023-03-06T19:36:05.625Z,26.27
2023-03-06T19:38:33.730Z,31.10
2023-03-06T19:41:02.688Z,28.47
2023-03-06T19:43:30.397Z,25.80
2023-03-06T19:45:58.309Z,24.13
2023-03-06T19:48:25.830Z,21.60
2023-03-06T19:50:53.354Z,27.10
2023-03-06T19:53:21.694Z,19.23
2023-03-06T19:55:49.299Z,22.97
2023-03-06T19:58:18.213Z,22.97
2023-03-06T20:00:45.878Z,23.10
2023-03-06T20:03:13.453Z,20.23
2023-03-06T20:05:46.366Z,38.57
2023-03-06T20:08:13.960Z,25.53
2023-03-06T20:10:41.550Z,20.93
2023-03-06T20:13:09.138Z,23.03
2023-03-06T20:15:38.143Z,29.87
2023-03-06T20:18:06.370Z,24.57
2023-03-06T20:20:33.923Z,19.93
2023-03-06T20:23:04.487Z,22.30
2023-03-06T20:25:32.222Z,18.30
2023-03-06T20:27:59.918Z,20.23
2023-03-06T20:30:36.685Z,19.37
2023-03-06T20:33:06.938Z,20.27
2023-03-06T20:35:34.489Z,21.40
2023-03-06T20:38:02.070Z,24.87
2023-03-06T20:40:29.748Z,21.00
2023-03-06T20:42:57.505Z,25.47
2023-03-06T20:45:25.145Z,19.10
2023-03-06T20:47:56.208Z,25.67
2023-03-06T20:50:25.600Z,25.87
2023-03-06T20:52:54.184Z,27.93
2023-03-06T20:55:21.786Z,31.87
2023-03-06T20:57:50.060Z,31.13
2023-03-06T21:00:18.290Z,31.27
2023-03-06T21:02:46.981Z,27.73
2023-03-06T21:05:14.697Z,28.47
2023-03-06T21:07:43.730Z,26.03
2023-03-06T21:10:11.970Z,24.90
2023-03-06T21:12:40.036Z,29.10
2023-03-06T21:15:08.370Z,18.07
2023-03-06T21:17:35.919Z,23.07
2023-03-06T21:20:05.433Z,19.03
2023-03-06T21:22:33.085Z,18.40
2023-03-06T21:25:02.122Z,17.33
2023-03-06T21:27:29.637Z,18.30
2023-03-06T21:29:57.143Z,20.07
2023-03-06T21:32:24.791Z,19.03
2023-03-06T21:34:52.560Z,16.90
2023-03-06T21:37:20.039Z,17.67
2023-03-06T21:39:47.648Z,15.63
2023-03-06T21:42:16.516Z,12.67
2023-03-06T21:44:44.072Z,20.53
2023-03-06T21:47:11.945Z,19.77
2023-03-06T21:49:39.625Z,19.03
2023-03-06T21:52:07.273Z,19.93
2023-03-06T21:54:36.179Z,18.17
2023-03-06T21:57:03.747Z,13.47
2023-03-06T21:59:32.668Z,16.30
2023-03-06T22:02:00.198Z,16.93
2023-03-06T22:04:29.510Z,19.10
2023-03-06T22:06:57.160Z,19.83
2023-03-06T22:09:24.827Z,17.63
2023-03-06T22:11:52.325Z,16.83
2023-03-06T22:14:19.909Z,17.40
2023-03-06T22:16:48.917Z,19.57
2023-03-06T22:19:16.606Z,18.10
2023-03-06T22:21:44.153Z,18.47
2023-03-06T22:24:11.676Z,18.80
2023-03-06T22:26:39.284Z,17.53
2023-03-06T22:29:06.918Z,15.60
2023-03-06T22:31:34.664Z,17.03
2023-03-06T22:34:03.699Z,17.63
2023-03-06T22:36:31.799Z,19.63
2023-03-06T22:39:00.529Z,17.53
2023-03-06T22:41:28.547Z,18.73
2023-03-06T22:43:56.819Z,17.53
2023-03-06T22:46:24.420Z,16.57
2023-03-06T22:48:51.984Z,17.70
2023-03-06T22:51:21.577Z,16.87
2023-03-06T22:53:50.618Z,17.67
2023-03-06T22:56:19.196Z,17.73
2023-03-06T22:58:47.149Z,18.03
2023-03-06T23:01:16.096Z,20.07
2023-03-06T23:03:44.481Z,17.67
2023-03-06T23:06:13.053Z,20.33
2023-03-06T23:08:42.262Z,18.77
2023-03-06T23:11:10.851Z,16.00
2023-03-06T23:13:38.696Z,16.37
2023-03-06T23:16:07.288Z,16.40
2023-03-06T23:18:35.132Z,16.57
2023-03-06T23:21:06.223Z,17.70
2023-03-06T23:23:34.140Z,18.43
2023-03-06T23:26:03.676Z,18.80
2023-03-06T23:28:31.545Z,17.20
2023-03-06T23:30:59.179Z,16.37
2023-03-06T23:33:27.029Z,19.67
2023-03-06T23:35:54.668Z,15.23
2023-03-06T23:38:22.223Z,20.63
2023-03-06T23:40:49.977Z,18.67
2023-03-06T23:43:18.955Z,26.30
2023-03-06T23:45:53.072Z,17.90
2023-03-06T23:48:20.626Z,15.07
2023-03-06T23:50:48.453Z,16.27
2023-03-06T23:53:15.989Z,22.13
2023-03-06T23:55:43.659Z,18.00
2023-03-06T23:58:11.634Z,20.13
